Time;durP1;ratioP1;P1;durP2;ratioP2;P2;SDS_P1;SDS_P2;PMS_P1;PMS_P2;Temp;Humidity;BMP_temperature;BMP_pressure;BME280_temperature;BME280_humidity;BME280_pressure;Samples;Min_cycle;Max_cycle;Signal;HPM_P1;HPM_P2
2023/01/09 00:01:59;;;;;;;;;;;19.70;50.60;;;;;;1514019;77;810;-69
2023/01/09 00:04:01;;;;;;;;;;;19.60;50.70;;;;;;1530060;76;775;-68
2023/01/09 00:06:03;;;;;;;;;;;19.70;50.90;;;;;;1532093;76;748;-68
2023/01/09 00:08:05;;;;;;;;;;;19.60;50.70;;;;;;1510466;77;1134;-71
2023/01/09 00:10:07;;;;;;;;;;;19.60;50.60;;;;;;1508439;77;731;-69
2023/01/09 00:12:09;;;;;;;;;;;19.50;50.70;;;;;;1555625;75;681;-70
2023/01/09 00:14:11;;;;;;;;;;;19.60;50.70;;;;;;1512331;77;1941;-68
2023/01/09 00:16:13;;;;;;;;;;;19.70;50.70;;;;;;1531215;76;802;-68
2023/01/09 00:18:15;;;;;;;;;;;19.80;51.30;;;;;;1537573;76;1157;-66
2023/01/09 00:20:17;;;;;;;;;;;19.80;51.10;;;;;;1528354;76;709;-67
2023/01/09 00:22:18;;;;;;;;;;;19.80;51.40;;;;;;1557344;75;868;-67
2023/01/09 00:24:20;;;;;;;;;;;19.80;51.30;;;;;;1550637;75;706;-67
2023/01/09 00:26:22;;;;;;;;;;;19.80;50.80;;;;;;1513258;77;833;-68
2023/01/09 00:28:24;;;;;;;;;;;19.90;50.70;;;;;;1514051;77;1120;-69
2023/01/09 00:30:26;;;;;;;;;;;19.90;50.60;;;;;;1529558;76;821;-68
2023/01/09 00:32:28;;;;;;;;;;;19.90;50.50;;;;;;1552716;75;735;-68
2023/01/09 00:34:30;;;;;;;;;;;19.90;50.70;;;;;;1513952;77;1922;-68
2023/01/09 00:36:32;;;;;;;;;;;19.90;50.60;;;;;;1530751;76;1160;-68
2023/01/09 00:38:35;;;;;;;;;;;19.80;50.70;;;;;;1561112;75;804;-68
2023/01/09 00:40:37;;;;;;;;;;;19.90;50.50;;;;;;1511023;77;756;-69
2023/01/09 00:42:39;;;;;;;;;;;19.90;50.60;;;;;;1535138;76;807;-69
2023/01/09 00:44:43;;;;;;;;;;;19.90;50.70;;;;;;1558158;75;746;-69
2023/01/09 00:46:46;;;;;;;;;;;19.80;50.50;;;;;;1517558;77;1173;-67
2023/01/09 00:48:48;;;;;;;;;;;19.90;50.70;;;;;;1531927;76;928;-66
2023/01/09 00:50:50;;;;;;;;;;;19.80;50.50;;;;;;1529887;76;738;-69
2023/01/09 00:52:53;;;;;;;;;;;19.90;50.50;;;;;;1555095;75;768;-68
2023/01/09 00:54:55;;;;;;;;;;;19.80;50.50;;;;;;1532705;76;1928;-68
2023/01/09 00:56:57;;;;;;;;;;;19.80;50.80;;;;;;1529256;76;1172;-67
2023/01/09 00:58:59;;;;;;;;;;;19.80;50.70;;;;;;1511803;77;800;-68
2023/01/09 01:01:01;;;;;;;;;;;19.80;51.00;;;;;;1519133;77;752;-69
2023/01/09 01:03:03;;;;;;;;;;;19.80;50.90;;;;;;1514539;77;776;-67
2023/01/09 01:07:41;;;;;;;;;;;19.90;50.90;;;;;;1530926;76;1625;-68
2023/01/09 01:09:43;;;;;;;;;;;19.90;50.50;;;;;;1561292;75;732;-68
2023/01/09 01:11:45;;;;;;;;;;;19.90;50.50;;;;;;1511435;77;766;-68
2023/01/09 01:13:47;;;;;;;;;;;19.80;50.50;;;;;;1546031;75;1931;-67
2023/01/09 01:15:49;;;;;;;;;;;19.90;50.50;;;;;;1512179;77;719;-68
2023/01/09 01:17:50;;;;;;;;;;;19.90;50.50;;;;;;1534670;76;1176;-68
2023/01/09 01:19:52;;;;;;;;;;;19.90;50.50;;;;;;1557621;75;758;-68
2023/01/09 01:21:54;;;;;;;;;;;19.90;50.50;;;;;;1515993;77;792;-68
2023/01/09 01:23:56;;;;;;;;;;;19.90;50.60;;;;;;1514362;77;777;-68
2023/01/09 01:25:59;;;;;;;;;;;19.80;50.50;;;;;;1522163;77;708;-68
2023/01/09 01:28:01;;;;;;;;;;;19.80;50.50;;;;;;1505000;76;1157;-69
2023/01/09 01:30:03;;;;;;;;;;;19.80;50.50;;;;;;1514959;77;745;-68
2023/01/09 01:32:05;;;;;;;;;;;19.80;50.50;;;;;;1512890;77;1540;-68
2023/01/09 01:34:07;;;;;;;;;;;19.80;50.50;;;;;;1532636;76;1915;-68
2023/01/09 01:36:09;;;;;;;;;;;19.80;50.60;;;;;;1556192;75;611;-68
2023/01/09 01:38:11;;;;;;;;;;;19.80;50.60;;;;;;1511508;77;1157;-68
2023/01/09 01:40:13;;;;;;;;;;;19.80;50.60;;;;;;1511923;77;781;-68
2023/01/09 01:42:15;;;;;;;;;;;19.80;50.60;;;;;;1537453;76;640;-68
2023/01/09 01:44:35;;;;;;;;;;;19.80;50.70;;;;;;1516632;77;816;-69
2023/01/09 01:46:37;;;;;;;;;;;19.80;50.90;;;;;;1553853;75;1163;-69
2023/01/09 01:48:39;;;;;;;;;;;19.70;51.00;;;;;;1511424;77;832;-69
2023/01/09 01:50:42;;;;;;;;;;;19.70;51.10;;;;;;1559550;75;760;-69
2023/01/09 01:52:44;;;;;;;;;;;19.70;51.30;;;;;;1524660;76;761;-68
2023/01/09 01:54:47;;;;;;;;;;;19.70;51.30;;;;;;1519839;77;1944;-69
2023/01/09 01:56:50;;;;;;;;;;;19.70;51.30;;;;;;1532866;76;1172;-68
2023/01/09 01:58:52;;;;;;;;;;;19.60;51.30;;;;;;1535210;76;742;-68
2023/01/09 02:00:54;;;;;;;;;;;19.70;51.40;;;;;;1555064;75;859;-69
2023/01/09 02:02:56;;;;;;;;;;;19.70;51.30;;;;;;1519346;77;768;-68
2023/01/09 02:04:58;;;;;;;;;;;19.70;51.40;;;;;;1520078;77;728;-68
2023/01/09 02:07:00;;;;;;;;;;;19.70;51.50;;;;;;1515756;77;1157;-68
2023/01/09 02:09:03;;;;;;;;;;;19.70;51.50;;;;;;1519867;77;748;-68
2023/01/09 02:11:05;;;;;;;;;;;19.70;51.40;;;;;;1514994;77;905;-69
2023/01/09 02:13:07;;;;;;;;;;;19.70;51.50;;;;;;1515274;77;739;-68
2023/01/09 02:15:10;;;;;;;;;;;19.70;51.50;;;;;;1533206;76;1929;-68
2023/01/09 02:17:19;;;;;;;;;;;19.70;51.40;;;;;;1557946;74;1149;-68
2023/01/09 02:19:41;;;;;;;;;;;19.80;51.30;;;;;;1551149;75;1919;-68
2023/01/09 02:21:53;;;;;;;;;;;19.80;51.40;;;;;;1554786;75;758;-68
2023/01/09 02:23:57;;;;;;;;;;;19.70;51.60;;;;;;1513210;77;800;-68
2023/01/09 02:26:03;;;;;;;;;;;19.70;52.00;;;;;;1517793;77;804;-68
2023/01/09 02:28:24;;;;;;;;;;;19.70;51.80;;;;;;1539223;75;1124;-68
2023/01/09 02:30:37;;;;;;;;;;;19.70;51.60;;;;;;1549119;75;685;-68
2023/01/09 02:32:55;;;;;;;;;;;19.70;51.40;;;;;;1512475;77;731;-69
2023/01/09 02:35:15;;;;;;;;;;;19.70;51.40;;;;;;1509071;77;2119;-70
2023/01/09 02:37:19;;;;;;;;;;;19.80;51.30;;;;;;1533865;75;1128;-67
2023/01/09 02:39:22;;;;;;;;;;;19.70;51.20;;;;;;1563131;75;1902;-68
2023/01/09 02:41:32;;;;;;;;;;;19.80;51.10;;;;;;1524446;77;718;-68
2023/01/09 02:43:34;;;;;;;;;;;19.80;51.00;;;;;;1515008;77;824;-68
2023/01/09 02:45:35;;;;;;;;;;;19.80;51.00;;;;;;1526534;76;826;-70
2023/01/09 02:47:38;;;;;;;;;;;19.90;51.00;;;;;;1555031;75;1152;-68
2023/01/09 02:49:41;;;;;;;;;;;19.90;51.00;;;;;;1510915;77;763;-68
2023/01/09 02:51:51;;;;;;;;;;;19.80;50.80;;;;;;1531624;76;728;-68
2023/01/09 02:53:54;;;;;;;;;;;19.80;50.90;;;;;;1558061;75;848;-65
2023/01/09 02:56:07;;;;;;;;;;;19.90;51.00;;;;;;1564594;75;1954;-69
2023/01/09 02:58:22;;;;;;;;;;;19.90;50.80;;;;;;1555218;75;1133;-68
2023/01/09 03:00:29;;;;;;;;;;;19.90;50.70;;;;;;1554180;75;742;-69
2023/01/09 03:02:41;;;;;;;;;;;19.80;50.70;;;;;;1521307;76;1107;-69
2023/01/09 03:04:44;;;;;;;;;;;19.80;50.70;;;;;;1534623;76;611;-68
2023/01/09 03:06:47;;;;;;;;;;;19.90;50.80;;;;;;1532933;76;1138;-69
2023/01/09 03:08:51;;;;;;;;;;;19.90;50.70;;;;;;1536038;76;802;-69
2023/01/09 03:10:54;;;;;;;;;;;19.90;50.60;;;;;;1528408;76;1799;-69
2023/01/09 03:12:56;;;;;;;;;;;20.00;50.60;;;;;;1526714;76;730;-68
2023/01/09 03:14:58;;;;;;;;;;;19.90;50.60;;;;;;1525309;76;1941;-68
2023/01/09 03:17:02;;;;;;;;;;;20.00;50.60;;;;;;1534099;75;1147;-68
2023/01/09 03:19:05;;;;;;;;;;;19.90;50.70;;;;;;1530538;76;738;-69
2023/01/09 03:21:07;;;;;;;;;;;19.90;50.80;;;;;;1531109;76;808;-69
2023/01/09 03:23:09;;;;;;;;;;;19.80;50.70;;;;;;1537133;76;796;-69
2023/01/09 03:25:11;;;;;;;;;;;19.80;50.80;;;;;;1534514;76;1594;-70
2023/01/09 03:27:13;;;;;;;;;;;19.80;51.00;;;;;;1529977;76;1180;-70
2023/01/09 03:29:15;;;;;;;;;;;19.80;51.00;;;;;;1531543;76;737;-70
2023/01/09 03:31:17;;;;;;;;;;;19.80;51.10;;;;;;1527534;76;801;-69
2023/01/09 03:33:19;;;;;;;;;;;19.80;51.20;;;;;;1539752;76;713;-67
2023/01/09 03:35:21;;;;;;;;;;;19.70;51.30;;;;;;1530304;76;1940;-68
2023/01/09 03:37:23;;;;;;;;;;;19.70;51.30;;;;;;1532873;76;1161;-69
2023/01/09 03:39:25;;;;;;;;;;;19.70;51.40;;;;;;1536205;76;906;-68
2023/01/09 03:41:27;;;;;;;;;;;19.70;51.40;;;;;;1528998;76;693;-70
2023/01/09 03:43:28;;;;;;;;;;;19.70;51.40;;;;;;1535336;76;723;-69
2023/01/09 03:45:30;;;;;;;;;;;19.70;51.70;;;;;;1529516;76;785;-70
2023/01/09 03:47:32;;;;;;;;;;;19.60;51.60;;;;;;1534270;75;1096;-70
2023/01/09 03:49:34;;;;;;;;;;;19.60;51.70;;;;;;1532129;76;831;-70
2023/01/09 03:51:36;;;;;;;;;;;19.60;51.80;;;;;;1535499;76;776;-72
2023/01/09 03:53:38;;;;;;;;;;;19.60;51.90;;;;;;1532116;76;766;-69
2023/01/09 03:55:41;;;;;;;;;;;19.60;51.90;;;;;;1531304;76;1937;-70
2023/01/09 03:57:43;;;;;;;;;;;19.50;52.00;;;;;;1532186;75;1769;-71
2023/01/09 03:59:45;;;;;;;;;;;19.50;52.10;;;;;;1531982;76;743;-69
2023/01/09 04:01:47;;;;;;;;;;;19.60;52.10;;;;;;1527925;76;790;-70
2023/01/09 04:03:49;;;;;;;;;;;19.50;52.10;;;;;;1530480;76;739;-69
2023/01/09 04:05:51;;;;;;;;;;;19.50;52.30;;;;;;1537601;76;732;-69
2023/01/09 04:07:53;;;;;;;;;;;19.50;52.10;;;;;;1533585;76;1121;-67
2023/01/09 04:09:55;;;;;;;;;;;19.50;51.90;;;;;;1530929;76;799;-68
2023/01/09 04:11:57;;;;;;;;;;;19.60;51.70;;;;;;1531452;76;757;-69
2023/01/09 04:13:58;;;;;;;;;;;19.70;51.70;;;;;;1525132;76;764;-70
2023/01/09 04:16:00;;;;;;;;;;;19.70;51.50;;;;;;1528533;76;1944;-68
2023/01/09 04:18:03;;;;;;;;;;;19.70;51.90;;;;;;1526644;76;1133;-72
2023/01/09 04:20:05;;;;;;;;;;;19.70;51.70;;;;;;1536133;76;893;-71
2023/01/09 04:22:07;;;;;;;;;;;19.60;51.50;;;;;;1527398;76;768;-70
2023/01/09 04:24:09;;;;;;;;;;;19.60;51.40;;;;;;1546174;76;1570;-70
2023/01/09 04:26:11;;;;;;;;;;;19.60;51.40;;;;;;1539859;76;929;-71
2023/01/09 04:28:13;;;;;;;;;;;19.60;51.30;;;;;;1525304;75;1180;-72
2023/01/09 04:30:14;;;;;;;;;;;19.60;51.30;;;;;;1523255;76;771;-71
2023/01/09 04:32:16;;;;;;;;;;;19.60;51.40;;;;;;1527163;76;1549;-72
2023/01/09 04:34:18;;;;;;;;;;;19.50;51.40;;;;;;1556701;75;825;-71
2023/01/09 04:36:20;;;;;;;;;;;19.50;51.40;;;;;;1514491;77;1939;-71
2023/01/09 04:38:22;;;;;;;;;;;19.50;51.40;;;;;;1549640;71;3089;-71
2023/01/09 04:40:24;;;;;;;;;;;19.50;51.40;;;;;;1612020;72;780;-72
2023/01/09 04:42:26;;;;;;;;;;;19.50;51.50;;;;;;1599925;73;708;-71
2023/01/09 04:44:28;;;;;;;;;;;19.50;51.50;;;;;;1607683;72;699;-73
2023/01/09 04:46:30;;;;;;;;;;;19.50;51.60;;;;;;1609879;73;587;-72
2023/01/09 04:48:32;;;;;;;;;;;19.40;51.50;;;;;;1593480;73;1231;-72
2023/01/09 04:50:34;;;;;;;;;;;19.40;51.70;;;;;;1591912;73;740;-71
2023/01/09 04:52:36;;;;;;;;;;;19.40;51.80;;;;;;1591651;73;790;-71
2023/01/09 04:54:38;;;;;;;;;;;19.50;51.70;;;;;;1589233;74;691;-70
2023/01/09 04:56:40;;;;;;;;;;;19.40;51.60;;;;;;1589409;74;1919;-70
2023/01/09 04:58:42;;;;;;;;;;;19.50;51.70;;;;;;1585696;73;1525;-70
2023/01/09 05:00:44;;;;;;;;;;;19.40;51.60;;;;;;1585013;73;680;-71
2023/01/09 05:02:45;;;;;;;;;;;19.40;51.50;;;;;;1591223;74;771;-73
2023/01/09 05:04:47;;;;;;;;;;;19.40;51.70;;;;;;1589937;73;694;-72
2023/01/09 05:06:49;;;;;;;;;;;19.50;51.70;;;;;;1587369;73;730;-72
2023/01/09 05:08:51;;;;;;;;;;;19.50;51.70;;;;;;1591573;74;1137;-74
2023/01/09 05:10:53;;;;;;;;;;;19.50;51.70;;;;;;1589669;73;709;-72
2023/01/09 05:12:55;;;;;;;;;;;19.50;51.60;;;;;;1592202;73;726;-71
2023/01/09 05:14:57;;;;;;;;;;;19.50;51.60;;;;;;1592660;74;1925;-71
2023/01/09 05:16:58;;;;;;;;;;;19.40;51.40;;;;;;1578439;73;1141;-72
2023/01/09 05:19:00;;;;;;;;;;;19.60;51.50;;;;;;1591994;74;651;-73
2023/01/09 05:21:02;;;;;;;;;;;19.50;51.50;;;;;;1584337;74;713;-74
2023/01/09 05:23:04;;;;;;;;;;;19.50;51.50;;;;;;1577992;74;726;-74
2023/01/09 05:25:06;;;;;;;;;;;19.50;51.50;;;;;;1588741;74;733;-71
2023/01/09 05:27:08;;;;;;;;;;;19.50;51.50;;;;;;1587537;73;1184;-72
2023/01/09 05:29:10;;;;;;;;;;;19.50;51.50;;;;;;1592253;74;721;-72
2023/01/09 05:31:12;;;;;;;;;;;19.50;51.50;;;;;;1589838;74;716;-72
2023/01/09 05:33:13;;;;;;;;;;;19.50;51.50;;;;;;1585984;73;734;-72
2023/01/09 05:35:15;;;;;;;;;;;19.50;51.50;;;;;;1587116;74;1929;-71
2023/01/09 05:37:17;;;;;;;;;;;19.50;51.60;;;;;;1592802;73;1144;-72
2023/01/09 05:39:19;;;;;;;;;;;19.50;51.60;;;;;;1589839;74;796;-71
2023/01/09 05:41:21;;;;;;;;;;;19.60;51.50;;;;;;1586428;73;682;-72
2023/01/09 05:43:23;;;;;;;;;;;19.50;51.60;;;;;;1590055;74;706;-72
2023/01/09 05:45:26;;;;;;;;;;;19.60;51.60;;;;;;1589923;73;717;-72
2023/01/09 05:47:27;;;;;;;;;;;19.60;51.60;;;;;;1584757;73;1176;-72
2023/01/09 05:49:29;;;;;;;;;;;19.50;51.50;;;;;;1586579;73;703;-71
2023/01/09 05:51:31;;;;;;;;;;;19.50;51.60;;;;;;1591481;73;704;-72
2023/01/09 05:53:33;;;;;;;;;;;19.50;51.60;;;;;;1592034;73;703;-72
2023/01/09 05:55:35;;;;;;;;;;;19.60;51.70;;;;;;1591851;73;1926;-75
2023/01/09 05:57:37;;;;;;;;;;;19.50;52.60;;;;;;1579815;73;1080;-75
2023/01/09 05:59:39;;;;;;;;;;;19.50;52.20;;;;;;1588710;73;739;-72
2023/01/09 06:01:40;;;;;;;;;;;19.50;52.10;;;;;;1581162;73;718;-71
2023/01/09 06:03:42;;;;;;;;;;;19.50;52.20;;;;;;1583424;73;724;-70
2023/01/09 06:05:44;;;;;;;;;;;19.60;52.10;;;;;;1577358;74;729;-70
2023/01/09 06:07:46;;;;;;;;;;;19.50;52.10;;;;;;1590221;74;1140;-74
2023/01/09 06:09:48;;;;;;;;;;;19.50;52.20;;;;;;1583190;74;757;-74
2023/01/09 06:11:50;;;;;;;;;;;19.50;52.10;;;;;;1579332;73;735;-72
2023/01/09 06:13:52;;;;;;;;;;;19.50;52.30;;;;;;1593409;74;738;-75
2023/01/09 06:15:54;;;;;;;;;;;19.50;52.10;;;;;;1580725;73;1939;-71
2023/01/09 06:17:56;;;;;;;;;;;19.50;52.20;;;;;;1575037;73;1129;-76
2023/01/09 06:19:58;;;;;;;;;;;19.50;52.30;;;;;;1578761;73;707;-74
2023/01/09 06:21:59;;;;;;;;;;;19.60;52.30;;;;;;1574026;73;684;-75
2023/01/09 06:24:01;;;;;;;;;;;19.60;52.40;;;;;;1592288;73;705;-73
2023/01/09 06:26:03;;;;;;;;;;;19.60;52.60;;;;;;1589791;73;695;-72
2023/01/09 06:28:05;;;;;;;;;;;19.60;52.70;;;;;;1581461;74;1196;-69
2023/01/09 06:30:07;;;;;;;;;;;19.60;52.60;;;;;;1576362;73;702;-69
2023/01/09 06:32:09;;;;;;;;;;;19.60;52.50;;;;;;1585636;73;692;-68
2023/01/09 06:34:11;;;;;;;;;;;19.60;52.40;;;;;;1570442;73;715;-69
2023/01/09 06:36:13;;;;;;;;;;;19.60;52.30;;;;;;1591175;73;1891;-69
2023/01/09 06:38:15;;;;;;;;;;;19.60;52.10;;;;;;1591386;73;1128;-70
2023/01/09 06:40:19;;;;;;;;;;;19.60;52.10;;;;;;1594306;74;682;-69
2023/01/09 06:42:21;;;;;;;;;;;19.60;52.00;;;;;;1590814;74;1619;-70
2023/01/09 06:44:23;;;;;;;;;;;19.60;51.90;;;;;;1584366;74;687;-71
2023/01/09 06:46:24;;;;;;;;;;;19.70;52.00;;;;;;1591983;73;661;-70
2023/01/09 06:48:26;;;;;;;;;;;19.60;51.80;;;;;;1590959;73;1140;-70
2023/01/09 06:50:28;;;;;;;;;;;19.60;51.80;;;;;;1591189;74;705;-68
2023/01/09 06:52:30;;;;;;;;;;;19.70;51.80;;;;;;1587439;73;666;-68
2023/01/09 06:54:32;;;;;;;;;;;19.70;51.70;;;;;;1587215;73;641;-70
2023/01/09 06:56:34;;;;;;;;;;;19.70;51.50;;;;;;1592099;74;1930;-71
2023/01/09 06:58:36;;;;;;;;;;;19.60;51.20;;;;;;1590782;74;1160;-70
2023/01/09 07:00:37;;;;;;;;;;;19.70;51.30;;;;;;1587079;73;699;-68
2023/01/09 07:02:39;;;;;;;;;;;19.70;51.20;;;;;;1592158;73;808;-66
2023/01/09 07:04:41;;;;;;;;;;;19.70;51.10;;;;;;1592042;74;706;-70
2023/01/09 07:06:43;;;;;;;;;;;19.70;51.10;;;;;;1587887;73;714;-69
2023/01/09 07:08:45;;;;;;;;;;;19.70;51.10;;;;;;1582665;74;1141;-68
2023/01/09 07:10:47;;;;;;;;;;;19.60;50.90;;;;;;1584070;73;766;-70
2023/01/09 07:12:49;;;;;;;;;;;19.70;51.00;;;;;;1587419;73;588;-68
2023/01/09 07:14:51;;;;;;;;;;;19.60;50.80;;;;;;1592887;74;719;-68
2023/01/09 07:16:53;;;;;;;;;;;19.60;50.80;;;;;;1590491;74;1954;-68
2023/01/09 07:18:54;;;;;;;;;;;19.60;50.80;;;;;;1578292;74;724;-68
2023/01/09 07:20:56;;;;;;;;;;;19.60;50.70;;;;;;1590014;74;736;-68
2023/01/09 07:22:58;;;;;;;;;;;19.60;50.80;;;;;;1581534;73;734;-68
2023/01/09 07:25:00;;;;;;;;;;;19.60;50.70;;;;;;1573915;73;801;-70
2023/01/09 07:27:02;;;;;;;;;;;19.60;50.70;;;;;;1586475;73;1168;-69
2023/01/09 07:29:04;;;;;;;;;;;19.60;50.70;;;;;;1589925;73;767;-67
2023/01/09 07:31:06;;;;;;;;;;;19.60;50.70;;;;;;1584539;74;780;-69
2023/01/09 07:33:08;;;;;;;;;;;19.50;50.70;;;;;;1582840;73;742;-67
2023/01/09 07:35:10;;;;;;;;;;;19.60;50.70;;;;;;1576971;73;724;-67
2023/01/09 07:37:12;;;;;;;;;;;19.50;50.70;;;;;;1580907;74;1927;-69
2023/01/09 07:39:14;;;;;;;;;;;19.50;50.70;;;;;;1592411;73;1506;-69
2023/01/09 07:41:15;;;;;;;;;;;19.50;50.70;;;;;;1590121;73;766;-71
2023/01/09 07:43:17;;;;;;;;;;;19.50;50.70;;;;;;1586550;74;725;-68
2023/01/09 07:45:19;;;;;;;;;;;19.60;50.70;;;;;;1582258;74;714;-67
2023/01/09 07:47:21;;;;;;;;;;;19.50;50.70;;;;;;1584208;74;1161;-68
2023/01/09 07:49:23;;;;;;;;;;;19.50;50.70;;;;;;1592718;73;739;-66
2023/01/09 07:51:25;;;;;;;;;;;19.50;50.70;;;;;;1593846;73;755;-67
2023/01/09 07:53:27;;;;;;;;;;;19.50;50.70;;;;;;1590013;73;905;-68
2023/01/09 07:55:28;;;;;;;;;;;19.40;50.50;;;;;;1587369;73;746;-68
2023/01/09 07:57:30;;;;;;;;;;;19.40;50.60;;;;;;1592096;74;1929;-68
2023/01/09 07:59:32;;;;;;;;;;;19.40;50.60;;;;;;1590224;73;822;-66
2023/01/09 08:01:34;;;;;;;;;;;19.50;50.70;;;;;;1589496;74;744;-66
2023/01/09 08:03:37;;;;;;;;;;;19.40;50.60;;;;;;1590987;73;895;-67
2023/01/09 08:05:39;;;;;;;;;;;19.40;50.60;;;;;;1589445;73;612;-67
2023/01/09 08:07:41;;;;;;;;;;;19.30;50.70;;;;;;1585371;73;1143;-67
2023/01/09 08:09:42;;;;;;;;;;;19.40;50.70;;;;;;1592111;73;710;-67
2023/01/09 08:11:44;;;;;;;;;;;19.30;50.70;;;;;;1593129;74;759;-67
2023/01/09 08:13:46;;;;;;;;;;;19.40;50.70;;;;;;1581410;73;725;-68
2023/01/09 08:15:48;;;;;;;;;;;19.40;50.70;;;;;;1592166;73;720;-70
2023/01/09 08:17:50;;;;;;;;;;;19.40;50.70;;;;;;1589526;73;1944;-68
2023/01/09 08:19:52;;;;;;;;;;;19.40;50.70;;;;;;1591867;74;740;-71
2023/01/09 08:21:54;;;;;;;;;;;19.50;50.90;;;;;;1590869;74;698;-68
2023/01/09 08:23:55;;;;;;;;;;;19.40;50.80;;;;;;1587086;73;762;-68
2023/01/09 08:25:57;;;;;;;;;;;19.40;50.90;;;;;;1591861;73;673;-69
2023/01/09 08:27:59;;;;;;;;;;;19.30;50.90;;;;;;1590273;73;1168;-70
2023/01/09 08:30:01;;;;;;;;;;;19.30;50.90;;;;;;1585971;74;800;-71
2023/01/09 08:32:03;;;;;;;;;;;19.40;51.00;;;;;;1589047;73;721;-68
2023/01/09 08:34:05;;;;;;;;;;;19.40;50.90;;;;;;1588319;73;727;-68
2023/01/09 08:36:07;;;;;;;;;;;19.40;51.00;;;;;;1591250;74;1927;-68
2023/01/09 08:38:10;;;;;;;;;;;19.40;51.00;;;;;;1589656;73;1073;-68
2023/01/09 08:40:12;;;;;;;;;;;19.40;51.00;;;;;;1587710;74;785;-67
2023/01/09 08:47:05;;;;;;;;;;;19.40;51.00;;;;;;1592938;74;1638;-72
2023/01/09 08:49:07;;;;;;;;;;;19.40;51.00;;;;;;1589707;74;556;-72
2023/01/09 08:51:09;;;;;;;;;;;19.40;51.00;;;;;;1587442;74;746;-73
2023/01/09 08:53:11;;;;;;;;;;;19.40;51.00;;;;;;1592679;73;813;-74
2023/01/09 08:55:13;;;;;;;;;;;19.40;50.90;;;;;;1591839;74;841;-77
2023/01/09 08:57:15;;;;;;;;;;;19.40;50.90;;;;;;1588735;74;1935;-68
2023/01/09 08:59:17;;;;;;;;;;;19.40;50.90;;;;;;1581525;74;722;-68
2023/01/09 09:01:18;;;;;;;;;;;19.40;50.80;;;;;;1589509;73;720;-68
2023/01/09 09:03:20;;;;;;;;;;;19.40;50.90;;;;;;1589281;73;888;-69
2023/01/09 09:05:22;;;;;;;;;;;19.40;50.90;;;;;;1586380;74;707;-69
2023/01/09 09:07:27;;;;;;;;;;;19.40;51.00;;;;;;1592154;74;1132;-69
2023/01/09 09:09:29;;;;;;;;;;;19.40;51.00;;;;;;1585592;73;1160;-69
2023/01/09 09:11:31;;;;;;;;;;;19.40;51.00;;;;;;1592642;73;749;-71
2023/01/09 09:13:33;;;;;;;;;;;19.30;51.10;;;;;;1591967;73;700;-69
2023/01/09 09:15:36;;;;;;;;;;;19.40;51.10;;;;;;1590855;73;677;-66
2023/01/09 09:17:39;;;;;;;;;;;19.30;51.10;;;;;;1590071;73;1941;-68
2023/01/09 09:19:41;;;;;;;;;;;19.40;51.10;;;;;;1590848;74;694;-68
2023/01/09 09:21:43;;;;;;;;;;;19.40;51.20;;;;;;1579850;74;710;-68
2023/01/09 09:23:45;;;;;;;;;;;19.30;51.20;;;;;;1590012;73;675;-68
2023/01/09 09:25:47;;;;;;;;;;;19.40;51.20;;;;;;1590830;73;643;-68
2023/01/09 09:27:49;;;;;;;;;;;19.40;51.20;;;;;;1586260;73;1148;-68
2023/01/09 09:29:51;;;;;;;;;;;19.40;51.20;;;;;;1590039;73;593;-70
2023/01/09 09:31:52;;;;;;;;;;;19.40;51.20;;;;;;1590847;73;572;-72
2023/01/09 09:33:54;;;;;;;;;;;19.40;51.20;;;;;;1571160;73;733;-68
2023/01/09 09:35:58;;;;;;;;;;;19.40;51.20;;;;;;1581600;73;731;-68
2023/01/09 09:38:00;;;;;;;;;;;19.30;51.20;;;;;;1589061;73;1933;-69
2023/01/09 09:40:02;;;;;;;;;;;19.40;51.20;;;;;;1591339;73;798;-68
2023/01/09 09:44:42;;;;;;;;;;;19.40;51.10;;;;;;1579219;73;1662;-70
2023/01/09 09:46:45;;;;;;;;;;;19.30;51.10;;;;;;1586915;73;693;-72
2023/01/09 09:48:49;;;;;;;;;;;19.30;51.20;;;;;;1592499;73;1152;-69
2023/01/09 09:51:09;;;;;;;;;;;19.40;51.30;;;;;;1582428;74;1676;-68
2023/01/09 09:53:18;;;;;;;;;;;19.40;51.40;;;;;;1538809;77;832;-68
2023/01/09 09:55:22;;;;;;;;;;;19.40;51.40;;;;;;1584178;74;658;-68
2023/01/09 09:57:25;;;;;;;;;;;19.40;51.50;;;;;;1591611;73;1933;-67
2023/01/09 09:59:32;;;;;;;;;;;19.40;51.60;;;;;;1590115;74;766;-70
2023/01/09 10:01:38;;;;;;;;;;;19.40;51.80;;;;;;1591768;73;726;-69
2023/01/09 10:03:41;;;;;;;;;;;19.40;52.10;;;;;;1591266;73;646;-69
2023/01/09 10:05:44;;;;;;;;;;;19.40;52.10;;;;;;1588581;74;1150;-69
2023/01/09 10:07:47;;;;;;;;;;;19.50;52.10;;;;;;1581317;73;1154;-71
2023/01/09 10:09:53;;;;;;;;;;;19.40;52.00;;;;;;1583403;74;724;-68
2023/01/09 10:11:57;;;;;;;;;;;19.40;52.00;;;;;;1591606;74;989;-69
2023/01/09 10:14:05;;;;;;;;;;;19.40;52.00;;;;;;1587516;74;1696;-69
2023/01/09 10:16:08;;;;;;;;;;;19.40;52.10;;;;;;1591981;74;760;-68
2023/01/09 10:18:20;;;;;;;;;;;19.40;52.00;;;;;;1590129;74;1923;-68
2023/01/09 10:20:33;;;;;;;;;;;19.40;52.00;;;;;;1584977;73;1118;-68
2023/01/09 10:22:40;;;;;;;;;;;19.40;52.00;;;;;;1588899;74;1656;-69
2023/01/09 10:24:43;;;;;;;;;;;19.40;52.20;;;;;;1576521;74;1133;-69
2023/01/09 10:26:47;;;;;;;;;;;19.40;52.10;;;;;;1582592;74;1829;-70
2023/01/09 10:28:50;;;;;;;;;;;19.40;52.10;;;;;;1583824;73;1173;-68
2023/01/09 10:30:53;;;;;;;;;;;19.40;52.10;;;;;;1581183;73;1044;-69
2023/01/09 10:33:03;;;;;;;;;;;19.40;52.10;;;;;;1576994;73;750;-70
2023/01/09 10:35:07;;;;;;;;;;;19.40;52.10;;;;;;1593315;73;2076;-69
2023/01/09 10:39:37;;;;;;;;;;;19.40;52.20;;;;;;1603333;71;1196;-60
2023/01/09 10:41:46;;;;;;;;;;;19.40;52.20;;;;;;1596213;73;740;-60
2023/01/09 10:43:52;;;;;;;;;;;19.40;52.10;;;;;;1545273;74;1134;-62
2023/01/09 10:45:55;;;;;;;;;;;19.40;52.10;;;;;;1576890;73;1700;-60
2023/01/09 10:47:59;;;;;;;;;;;19.40;52.10;;;;;;1599380;73;763;-59
2023/01/09 10:50:21;;;;;;;;;;;19.40;52.10;;;;;;1600678;73;1145;-58
2023/01/09 10:52:36;;;;;;;;;;;19.40;52.10;;;;;;1597788;73;754;-62
2023/01/09 10:54:40;;;;;;;;;;;19.40;52.20;;;;;;1603027;73;765;-60
2023/01/09 10:56:44;;;;;;;;;;;19.40;52.20;;;;;;1606413;73;1964;-62
2023/01/09 10:58:46;;;;;;;;;;;19.40;52.30;;;;;;1602162;73;1920;-59
2023/01/09 11:00:48;;;;;;;;;;;19.40;52.20;;;;;;1600103;73;1472;-59
2023/01/09 11:02:52;;;;;;;;;;;19.40;52.20;;;;;;1602355;73;803;-59
2023/01/09 11:04:53;;;;;;;;;;;19.40;52.10;;;;;;1598907;73;1533;-60
2023/01/09 11:06:59;;;;;;;;;;;19.40;52.20;;;;;;1603634;73;799;-61
2023/01/09 11:09:01;;;;;;;;;;;19.30;52.20;;;;;;1608605;73;1168;-61
2023/01/09 11:11:03;;;;;;;;;;;19.30;52.20;;;;;;1601743;73;639;-60
2023/01/09 11:13:15;;;;;;;;;;;19.50;52.30;;;;;;1603350;73;750;-61
2023/01/09 11:15:19;;;;;;;;;;;19.40;52.20;;;;;;1565512;74;1195;-61
2023/01/09 11:17:21;;;;;;;;;;;19.40;52.20;;;;;;1586373;73;1945;-62
2023/01/09 11:19:23;;;;;;;;;;;19.40;52.10;;;;;;1593667;73;1168;-61
2023/01/09 11:21:27;;;;;;;;;;;19.40;52.10;;;;;;1605072;73;725;-60
2023/01/09 11:23:32;;;;;;;;;;;19.40;52.10;;;;;;1605335;73;693;-62
2023/01/09 11:25:34;;;;;;;;;;;19.40;52.10;;;;;;1592335;73;704;-61
2023/01/09 11:27:36;;;;;;;;;;;19.40;52.10;;;;;;1585585;73;717;-57
2023/01/09 11:29:38;;;;;;;;;;;19.50;52.30;;;;;;1587071;73;1134;-59
2023/01/09 11:31:41;;;;;;;;;;;19.50;52.30;;;;;;1597642;73;868;-59
2023/01/09 11:33:45;;;;;;;;;;;19.60;52.30;;;;;;1595309;73;1019;-60
2023/01/09 11:35:57;;;;;;;;;;;19.60;52.20;;;;;;1592102;73;1876;-59
2023/01/09 11:38:07;;;;;;;;;;;19.60;52.20;;;;;;1612231;73;1913;-59
2023/01/09 11:40:11;;;;;;;;;;;19.60;52.20;;;;;;1588066;73;1173;-59
2023/01/09 11:42:50;;;;;;;;;;;19.60;52.30;;;;;;1591896;73;1833;-60
2023/01/09 11:44:24;;;;;;;;;;;19.60;52.30;;;;;;1543681;73;1357;-61
2023/01/09 11:46:29;;;;;;;;;;;19.60;52.30;;;;;;1601111;73;692;-60
2023/01/09 11:48:32;;;;;;;;;;;19.60;52.50;;;;;;1600876;73;1118;-59
2023/01/09 11:50:34;;;;;;;;;;;19.70;52.70;;;;;;1593399;73;720;-59
2023/01/09 11:52:36;;;;;;;;;;;19.70;52.40;;;;;;1602952;73;729;-60
2023/01/09 11:54:38;;;;;;;;;;;19.70;52.30;;;;;;1604411;73;793;-60
2023/01/09 11:56:40;;;;;;;;;;;19.70;52.30;;;;;;1604778;73;1209;-61
2023/01/09 11:58:42;;;;;;;;;;;19.80;52.20;;;;;;1605866;73;1943;-60
2023/01/09 12:00:46;;;;;;;;;;;19.70;52.20;;;;;;1604819;73;765;-60
2023/01/09 12:02:53;;;;;;;;;;;19.80;52.30;;;;;;1597236;73;1687;-61
2023/01/09 12:05:01;;;;;;;;;;;19.70;52.30;;;;;;1553972;74;1087;-60
2023/01/09 12:07:10;;;;;;;;;;;19.70;52.30;;;;;;1607961;73;771;-60
2023/01/09 12:09:19;;;;;;;;;;;19.70;52.30;;;;;;1604173;73;1125;-61
2023/01/09 12:11:23;;;;;;;;;;;19.70;52.30;;;;;;1553326;73;1100;-59
2023/01/09 12:13:35;;;;;;;;;;;19.70;52.30;;;;;;1600997;73;752;-61
2023/01/09 12:15:39;;;;;;;;;;;19.70;52.30;;;;;;1603292;73;781;-61
2023/01/09 12:17:59;;;;;;;;;;;19.60;52.20;;;;;;1600279;73;1941;-60
2023/01/09 12:20:02;;;;;;;;;;;19.60;52.20;;;;;;1600517;73;1078;-60
2023/01/09 12:22:11;;;;;;;;;;;19.70;52.30;;;;;;1600267;73;2033;-60
2023/01/09 12:24:20;;;;;;;;;;;19.60;52.10;;;;;;1591835;73;692;-60
2023/01/09 12:26:29;;;;;;;;;;;19.70;52.30;;;;;;1601529;73;651;-61
2023/01/09 12:28:48;;;;;;;;;;;19.70;52.30;;;;;;1597453;73;2237;-60